Cedar Glen, CA (92321)

7:40 AM PDT on September 22, 2014 (GMT -0700)
(Acadia Dr) N.E. | Change Station
CLOSE
Current Station
Personal Weather Station
Location: Lake Arrowhead, CA
Elevation: 5320 ft
Nearby Weather Stations

Elev 5320 ft 34.27 °N, 117.17 °W | Updated 3 minutes ago

Clear
Clear
58.8 °F
Feels Like 58.8 °F
N
0.0
Wind Variable Wind from NNE

Today
High -- | Low -- °F
--% Chance of Precip.
Yesterday
High -- | Low -- °F
Precip. -- in
6:36 AM 6:45 PM
Waning Crescent, 3% visible
Pressure 30.29 in
Visibility 10.0 miles
Clouds Clear
Dew Point 42 °F
Humidity 53%
Rainfall 0.00 in
Snow Depth 0 in , 1 in , 1 in
UV 1 out of 12
Pollen 6.60 out of 12
Ozone Good
PM2.5 Good
Flu Activity Not available.
METAR KL35 221435Z AUTO 00000KT 10SM CLR 03/00 A3029 RMK AO2

More Conditions Fewer Conditions

Pressure 30.29 in
Visibility 10.0 miles
Clouds Clear
Dew Point 42 °F
Humidity 53%
Rainfall 0.00 in
Snow Depth 0 in , 1 in , 1 in
UV 1 out of 12
Pollen 6.60 out of 12
Ozone Good
PM2.5 Good
Flu Activity Not available.
METAR KL35 221435Z AUTO 00000KT 10SM CLR 03/00 A3029 RMK AO2

More Conditions Fewer Conditions

10-Day Weather Forecast

Almanac

Astronomy

Sep. 22, 2014 Rise Set
Actual Time 6:36 AM PDT 6:45 PM PDT
Civil Twilight 6:11 AM PDT 7:10 PM PDT
Nautical Twilight 5:42 AM PDT 7:39 PM PDT
Astronomical Twilight 5:12 AM PDT 8:09 PM PDT
Moon 5:12 AM PDT 5:53 PM PDT
Length of Visible Light 12h 58m
Length of Day
12h 08m
Tomorrow will be 2m 8s shorter.
Waning Crescent, 3% of the Moon is Illuminated
Today
Waning Crescent
Sep 24
New
Oct 1
First Quarter
Oct 8
Full
Oct 15
Last Quarter

Today's Extremes

State Highs State Lows

Community

WunderPhotos

Upload Photos

1,755,459 photos uploaded!

WunderBlogs® & News

By Dr. Jeff Masters
Director of Meteorology, Weather Underground
By Kari Strenfel
Meteorologist, Weather Underground
By Christopher C. Burt
Weather Historian, Weather Underground
September 22, 2014
September 22, 2014
September 22, 2014

Nearby

Air Quality

  Air Quality AQ Index Pollutant
Yesterday Moderate
OZONE
Yesterday Good
PM2.5
Current Good
OZONE
Current Good
PM2.5
Monday Moderate
OZONE
Monday Good
PM10
Monday Good
CO
Monday Good
NO2

Snow Depth

Station Depth Elevation
Heavenly Valley 0 in 8850 ft
Sonora Pass 0 in 8800 ft
Summit Meadow 1 in 9122 ft
Spratt Creek 1 in 6200 ft
Leavitt Lake 1 in 9400 ft

Earthquake Activity

City Distance Mag. Time & Date
Big Bear Lake, California 8 miles 2.5 7:26 AM PDT
2014-09-22
Borrego Springs, California 86 miles 2.6 7:34 AM PDT
2014-09-21
Inyokern, California 130 miles 3.1 5:33 PM PDT
2014-09-19
Aguanga, California 58 miles 2.5 1:38 AM PDT
2014-09-19
Minimum magnitude displayed is 2.5.

Coastal Water Temperatures

Place Temperature
No Stations Reporting

Nearby Weather Stations